THY2FY DAOO-LTBJ
Flight info
| Callsign | THY2FY |
|---|---|
| Flight time | 3h 4m |
| Altitude | 33000 |
| Route | SID51 CHE UA31 BNA UA411 MORJA UM978 KEMIR UA411 TUC UM978 SONAK M978 DOBIX N4 EVIRA M978 BINKO N45 ROTAS UN45 MONUV UP32 MIL UR32 REDRA REDR1F |
| Aircraft | A321/M-SDE3FGHIRWY/LB1 |
Departure
| Time | 2026-04-28 15:13 |
|---|---|
| Airport | Oran Es-Sénia (Ahmed Ben Bella) International Airport (DAOO) |
Arrival
| Time | 2026-04-28 18:17 |
|---|---|
| Airport | Adnan Menderes International Airport (LTBJ) |
| Time | Latitude | Longitude | Altitude | Speed | Heading |
|---|---|---|---|---|---|
| 2026-04-28 15:09 | 35.62324 | -0.60367 | 299 ft | 5 kts | 7° |
| 2026-04-28 15:09 | 35.62378 | -0.60362 | 298 ft | 13 kts | 5° |
| 2026-04-28 15:09 | 35.62466 | -0.60352 | 298 ft | 7 kts | 1° |
| 2026-04-28 15:10 | 35.62517 | -0.60357 | 297 ft | 6 kts | 349° |
| 2026-04-28 15:10 | 35.62558 | -0.60374 | 296 ft | 8 kts | 337° |
| 2026-04-28 15:10 | 35.62658 | -0.60425 | 295 ft | 18 kts | 338° |
| 2026-04-28 15:10 | 35.62767 | -0.60481 | 295 ft | 14 kts | 337° |
| 2026-04-28 15:11 | 35.62838 | -0.60520 | 296 ft | 6 kts | 329° |
| 2026-04-28 15:11 | 35.62868 | -0.60550 | 296 ft | 4 kts | 307° |
| 2026-04-28 15:11 | 35.62882 | -0.60585 | 296 ft | 3 kts | 284° |
| 2026-04-28 15:11 | 35.62884 | -0.60616 | 296 ft | 3 kts | 266° |
| 2026-04-28 15:12 | 35.62879 | -0.60650 | 296 ft | 4 kts | 256° |
| 2026-04-28 15:12 | 35.62868 | -0.60685 | 296 ft | 8 kts | 248° |
| 2026-04-28 15:12 | 35.62749 | -0.61028 | 297 ft | 78 kts | 250° |
| 2026-04-28 15:12 | 35.62454 | -0.61901 | 297 ft | 141 kts | 246° |
| 2026-04-28 15:13 | 35.61997 | -0.63226 | 409 ft | 183 kts | 249° |
| 2026-04-28 15:13 | 35.61521 | -0.64591 | 1134 ft | 164 kts | 248° |
| 2026-04-28 15:13 | 35.60943 | -0.65744 | 1511 ft | 167 kts | 232° |
| 2026-04-28 15:13 | 35.60157 | -0.66869 | 1799 ft | 175 kts | 229° |
| 2026-04-28 15:14 | 35.59355 | -0.67952 | 2232 ft | 172 kts | 232° |
| 2026-04-28 15:14 | 35.58592 | -0.69148 | 2477 ft | 181 kts | 235° |
| 2026-04-28 15:14 | 35.57821 | -0.70429 | 2709 ft | 192 kts | 236° |
| 2026-04-28 15:14 | 35.57007 | -0.71791 | 2952 ft | 204 kts | 236° |
| 2026-04-28 15:15 | 35.56144 | -0.73229 | 3255 ft | 212 kts | 236° |
| 2026-04-28 15:15 | 35.55238 | -0.74733 | 3534 ft | 224 kts | 235° |
| 2026-04-28 15:15 | 35.54277 | -0.76332 | 3733 ft | 242 kts | 234° |
| 2026-04-28 15:15 | 35.53247 | -0.78038 | 4027 ft | 257 kts | 234° |
| 2026-04-28 15:16 | 35.52376 | -0.79982 | 4430 ft | 265 kts | 258° |
| 2026-04-28 15:16 | 35.52486 | -0.82184 | 5027 ft | 263 kts | 293° |
| 2026-04-28 15:16 | 35.53608 | -0.83919 | 5641 ft | 264 kts | 326° |
| 2026-04-28 15:16 | 35.55359 | -0.84622 | 6028 ft | 276 kts | 359° |
| 2026-04-28 15:17 | 35.57252 | -0.84115 | 6408 ft | 286 kts | 27° |
| 2026-04-28 15:17 | 35.58762 | -0.82535 | 6899 ft | 289 kts | 57° |
| 2026-04-28 15:17 | 35.59526 | -0.80290 | 7426 ft | 288 kts | 82° |
| 2026-04-28 15:17 | 35.59826 | -0.77861 | 7992 ft | 290 kts | 84° |
| 2026-04-28 15:18 | 35.60114 | -0.75391 | 8539 ft | 293 kts | 85° |
| 2026-04-28 15:18 | 35.60404 | -0.72924 | 9075 ft | 296 kts | 85° |
| 2026-04-28 15:18 | 35.60709 | -0.70382 | 9607 ft | 299 kts | 85° |
| 2026-04-28 15:18 | 35.61015 | -0.67854 | 10109 ft | 303 kts | 85° |
| 2026-04-28 15:19 | 35.61293 | -0.65243 | 10373 ft | 315 kts | 89° |
| 2026-04-28 15:19 | 35.61398 | -0.62523 | 10619 ft | 327 kts | 91° |
| 2026-04-28 15:19 | 35.61466 | -0.59658 | 10858 ft | 340 kts | 92° |
| 2026-04-28 15:19 | 35.61534 | -0.56738 | 11084 ft | 352 kts | 91° |
| 2026-04-28 15:20 | 35.61610 | -0.53676 | 11307 ft | 365 kts | 91° |
| 2026-04-28 15:20 | 35.61694 | -0.50519 | 11525 ft | 377 kts | 91° |
| 2026-04-28 15:20 | 35.61785 | -0.47254 | 11777 ft | 387 kts | 91° |
| 2026-04-28 15:20 | 35.61878 | -0.43931 | 12206 ft | 392 kts | 91° |
| 2026-04-28 15:21 | 35.61974 | -0.40575 | 12717 ft | 394 kts | 91° |
| 2026-04-28 15:21 | 35.62069 | -0.37220 | 13193 ft | 396 kts | 91° |
| 2026-04-28 15:21 | 35.62162 | -0.33828 | 13656 ft | 399 kts | 91° |
| 2026-04-28 15:21 | 35.62256 | -0.30386 | 14107 ft | 402 kts | 91° |
| 2026-04-28 15:22 | 35.62349 | -0.26959 | 14567 ft | 405 kts | 91° |
| 2026-04-28 15:22 | 35.62710 | -0.23501 | 14920 ft | 414 kts | 76° |
| 2026-04-28 15:22 | 35.63873 | -0.20274 | 15393 ft | 419 kts | 64° |
| 2026-04-28 15:22 | 35.65262 | -0.17097 | 15824 ft | 422 kts | 65° |
| 2026-04-28 15:23 | 35.66592 | -0.13897 | 16245 ft | 424 kts | 65° |
| 2026-04-28 15:23 | 35.67923 | -0.10658 | 16647 ft | 426 kts | 65° |
| 2026-04-28 15:23 | 35.69263 | -0.07397 | 17075 ft | 429 kts | 65° |
| 2026-04-28 15:23 | 35.70609 | -0.04127 | 17468 ft | 432 kts | 65° |
| 2026-04-28 15:24 | 35.71982 | -0.00798 | 17933 ft | 434 kts | 65° |
| 2026-04-28 15:24 | 35.73338 | 0.02483 | 18278 ft | 436 kts | 65° |
| 2026-04-28 15:24 | 35.74709 | 0.05801 | 18644 ft | 439 kts | 65° |
| 2026-04-28 15:24 | 35.76104 | 0.09182 | 19040 ft | 441 kts | 65° |
| 2026-04-28 15:25 | 35.77493 | 0.12548 | 19418 ft | 442 kts | 65° |
| 2026-04-28 15:25 | 35.78869 | 0.15882 | 19784 ft | 444 kts | 65° |
| 2026-04-28 15:25 | 35.80277 | 0.19300 | 20142 ft | 446 kts | 65° |
| 2026-04-28 15:25 | 35.81679 | 0.22707 | 20450 ft | 448 kts | 65° |
| 2026-04-28 15:26 | 35.83085 | 0.26126 | 20802 ft | 450 kts | 65° |
| 2026-04-28 15:26 | 35.84496 | 0.29564 | 21114 ft | 452 kts | 65° |
| 2026-04-28 15:26 | 35.85914 | 0.33021 | 21466 ft | 453 kts | 65° |
| 2026-04-28 15:26 | 35.87335 | 0.36493 | 21771 ft | 455 kts | 65° |
| 2026-04-28 15:27 | 35.88743 | 0.39930 | 22029 ft | 457 kts | 65° |
| 2026-04-28 15:27 | 35.90187 | 0.43463 | 22339 ft | 459 kts | 65° |
| 2026-04-28 15:27 | 35.91624 | 0.46979 | 22625 ft | 462 kts | 65° |
| 2026-04-28 15:27 | 35.93063 | 0.50508 | 22920 ft | 463 kts | 65° |
| 2026-04-28 15:28 | 35.94498 | 0.54033 | 23212 ft | 464 kts | 65° |
| 2026-04-28 15:28 | 35.95950 | 0.57598 | 23465 ft | 466 kts | 65° |
| 2026-04-28 15:28 | 35.97411 | 0.61191 | 23690 ft | 469 kts | 65° |
| 2026-04-28 15:28 | 35.98876 | 0.64797 | 23974 ft | 471 kts | 65° |
| 2026-04-28 15:29 | 36.00346 | 0.68415 | 24243 ft | 472 kts | 66° |
| 2026-04-28 15:29 | 36.01814 | 0.72039 | 24525 ft | 473 kts | 65° |
| 2026-04-28 15:29 | 36.03292 | 0.75693 | 24773 ft | 475 kts | 65° |
| 2026-04-28 15:29 | 36.04756 | 0.79316 | 24967 ft | 477 kts | 65° |
| 2026-04-28 15:30 | 36.06240 | 0.82990 | 25184 ft | 479 kts | 65° |
| 2026-04-28 15:30 | 36.07737 | 0.86694 | 25442 ft | 479 kts | 65° |
| 2026-04-28 15:30 | 36.09217 | 0.90371 | 25649 ft | 481 kts | 65° |
| 2026-04-28 15:30 | 36.10693 | 0.94033 | 25992 ft | 480 kts | 65° |
| 2026-04-28 15:31 | 36.12188 | 0.97746 | 26411 ft | 476 kts | 65° |
| 2026-04-28 15:31 | 36.13642 | 1.01366 | 26745 ft | 474 kts | 65° |
| 2026-04-28 15:31 | 36.15113 | 1.05029 | 26963 ft | 475 kts | 65° |
| 2026-04-28 15:31 | 36.16584 | 1.08704 | 27222 ft | 476 kts | 65° |
| 2026-04-28 15:32 | 36.18032 | 1.12316 | 27544 ft | 474 kts | 65° |
| 2026-04-28 15:32 | 36.19487 | 1.15958 | 27902 ft | 472 kts | 65° |
| 2026-04-28 15:32 | 36.20944 | 1.19595 | 28246 ft | 470 kts | 66° |
| 2026-04-28 15:32 | 36.22395 | 1.23228 | 28464 ft | 470 kts | 65° |
| 2026-04-28 15:33 | 36.23829 | 1.26833 | 28676 ft | 471 kts | 66° |
| 2026-04-28 15:33 | 36.25270 | 1.30454 | 28926 ft | 471 kts | 66° |
| 2026-04-28 15:33 | 36.26711 | 1.34078 | 29210 ft | 469 kts | 66° |
| 2026-04-28 15:33 | 36.28152 | 1.37708 | 29441 ft | 469 kts | 66° |
| 2026-04-28 15:34 | 36.29596 | 1.41348 | 29620 ft | 470 kts | 66° |
| 2026-04-28 15:34 | 36.31028 | 1.44964 | 29818 ft | 471 kts | 66° |
| 2026-04-28 15:34 | 36.32464 | 1.48586 | 30025 ft | 471 kts | 66° |
| 2026-04-28 15:34 | 36.33918 | 1.52268 | 30217 ft | 472 kts | 66° |
| 2026-04-28 15:35 | 36.35358 | 1.55911 | 30407 ft | 472 kts | 66° |
| 2026-04-28 15:35 | 36.38223 | 1.63181 | 30784 ft | 473 kts | 66° |
| 2026-04-28 15:35 | 36.39684 | 1.66892 | 30801 ft | 476 kts | 66° |
| 2026-04-28 15:36 | 36.42587 | 1.74286 | 30796 ft | 483 kts | 67° |
| 2026-04-28 15:36 | 36.45527 | 1.81782 | 30825 ft | 484 kts | 67° |
| 2026-04-28 15:37 | 36.48467 | 1.89299 | 30818 ft | 482 kts | 67° |
| 2026-04-28 15:37 | 36.51369 | 1.96742 | 30825 ft | 482 kts | 67° |
| 2026-04-28 15:38 | 36.54283 | 2.04228 | 30824 ft | 483 kts | 67° |
| 2026-04-28 15:38 | 36.57179 | 2.11784 | 30825 ft | 482 kts | 69° |
| 2026-04-28 15:39 | 36.59329 | 2.19562 | 30826 ft | 478 kts | 78° |
| 2026-04-28 15:39 | 36.60454 | 2.27657 | 30829 ft | 474 kts | 88° |
| 2026-04-28 15:40 | 36.60827 | 2.35834 | 30820 ft | 474 kts | 90° |
| 2026-04-28 15:40 | 36.61126 | 2.44063 | 30817 ft | 478 kts | 90° |
| 2026-04-28 15:41 | 36.61438 | 2.52330 | 30807 ft | 480 kts | 89° |
| 2026-04-28 15:41 | 36.61751 | 2.60568 | 30801 ft | 479 kts | 89° |
| 2026-04-28 15:42 | 36.62065 | 2.68885 | 30815 ft | 481 kts | 89° |
| 2026-04-28 15:42 | 36.62374 | 2.77158 | 30800 ft | 480 kts | 90° |
| 2026-04-28 15:43 | 36.62678 | 2.85457 | 30816 ft | 483 kts | 90° |
| 2026-04-28 15:43 | 36.62975 | 2.93821 | 30832 ft | 483 kts | 89° |
| 2026-04-28 15:44 | 36.63268 | 3.02154 | 30840 ft | 485 kts | 89° |
| 2026-04-28 15:44 | 36.63556 | 3.10531 | 30848 ft | 484 kts | 89° |
| 2026-04-28 15:45 | 36.63839 | 3.18893 | 30854 ft | 485 kts | 89° |
| 2026-04-28 15:45 | 36.64114 | 3.27237 | 30850 ft | 485 kts | 89° |
| 2026-04-28 15:46 | 36.64384 | 3.35569 | 30851 ft | 484 kts | 89° |
| 2026-04-28 15:46 | 36.64653 | 3.43970 | 30852 ft | 485 kts | 89° |
| 2026-04-28 15:47 | 36.64910 | 3.52314 | 30851 ft | 486 kts | 89° |
| 2026-04-28 15:47 | 36.65171 | 3.60702 | 30841 ft | 486 kts | 88° |
| 2026-04-28 15:48 | 36.65572 | 3.69108 | 30838 ft | 487 kts | 88° |
| 2026-04-28 15:48 | 36.65991 | 3.77481 | 30831 ft | 487 kts | 88° |
| 2026-04-28 15:49 | 36.66395 | 3.85841 | 30834 ft | 488 kts | 88° |
| 2026-04-28 15:49 | 36.66793 | 3.94282 | 30835 ft | 487 kts | 88° |
| 2026-04-28 15:50 | 36.67182 | 4.02645 | 30848 ft | 488 kts | 88° |
| 2026-04-28 15:50 | 36.67563 | 4.11034 | 30850 ft | 488 kts | 88° |
| 2026-04-28 15:51 | 36.67941 | 4.19494 | 30874 ft | 488 kts | 88° |
| 2026-04-28 15:51 | 36.68310 | 4.27907 | 30878 ft | 489 kts | 88° |
| 2026-04-28 15:52 | 36.68676 | 4.36314 | 30894 ft | 491 kts | 88° |
| 2026-04-28 15:52 | 36.69036 | 4.44789 | 30905 ft | 490 kts | 88° |
| 2026-04-28 15:53 | 36.69391 | 4.53240 | 30920 ft | 490 kts | 88° |
| 2026-04-28 15:53 | 36.69740 | 4.61726 | 30931 ft | 491 kts | 88° |
| 2026-04-28 15:54 | 36.70085 | 4.70250 | 30930 ft | 493 kts | 88° |
| 2026-04-28 15:54 | 36.70422 | 4.78730 | 30919 ft | 493 kts | 88° |
| 2026-04-28 15:55 | 36.70756 | 4.87248 | 30897 ft | 492 kts | 88° |
| 2026-04-28 15:55 | 36.71083 | 4.95713 | 30880 ft | 493 kts | 88° |
| 2026-04-28 15:56 | 36.71405 | 5.04258 | 30872 ft | 493 kts | 88° |
| 2026-04-28 15:56 | 36.72044 | 5.12737 | 30869 ft | 493 kts | 83° |
| 2026-04-28 15:57 | 36.72937 | 5.21182 | 30862 ft | 494 kts | 83° |
| 2026-04-28 15:57 | 36.73842 | 5.29687 | 30858 ft | 495 kts | 83° |
| 2026-04-28 15:58 | 36.74731 | 5.38197 | 30853 ft | 496 kts | 83° |
| 2026-04-28 15:58 | 36.75608 | 5.46674 | 30854 ft | 495 kts | 83° |
| 2026-04-28 15:59 | 36.76480 | 5.55165 | 30855 ft | 495 kts | 83° |
| 2026-04-28 15:59 | 36.77340 | 5.63597 | 30863 ft | 495 kts | 83° |
| 2026-04-28 16:00 | 36.78207 | 5.72159 | 30873 ft | 495 kts | 84° |
| 2026-04-28 16:00 | 36.79058 | 5.80647 | 30871 ft | 495 kts | 84° |
| 2026-04-28 16:01 | 36.79772 | 5.89135 | 30862 ft | 494 kts | 88° |
| 2026-04-28 16:01 | 36.80021 | 5.97675 | 30870 ft | 494 kts | 89° |
| 2026-04-28 16:02 | 36.80219 | 6.06231 | 30859 ft | 494 kts | 90° |
| 2026-04-28 16:02 | 36.80416 | 6.14799 | 30860 ft | 494 kts | 89° |
| 2026-04-28 16:03 | 36.80613 | 6.23336 | 30842 ft | 494 kts | 89° |
| 2026-04-28 16:03 | 36.80808 | 6.31870 | 30844 ft | 494 kts | 89° |
| 2026-04-28 16:04 | 36.80995 | 6.40389 | 30853 ft | 494 kts | 89° |
| 2026-04-28 16:04 | 36.81177 | 6.48930 | 30876 ft | 494 kts | 89° |
| 2026-04-28 16:05 | 36.81354 | 6.57493 | 30879 ft | 494 kts | 89° |
| 2026-04-28 16:05 | 36.81524 | 6.66021 | 30875 ft | 494 kts | 90° |
| 2026-04-28 16:06 | 36.81690 | 6.74626 | 30865 ft | 495 kts | 90° |
| 2026-04-28 16:06 | 36.81847 | 6.83205 | 30862 ft | 495 kts | 90° |
| 2026-04-28 16:07 | 36.81998 | 6.91780 | 30867 ft | 495 kts | 90° |
| 2026-04-28 16:08 | 36.82215 | 7.04588 | 30849 ft | 495 kts | 90° |
| 2026-04-28 16:08 | 36.82352 | 7.13126 | 30845 ft | 495 kts | 90° |
| 2026-04-28 16:09 | 36.82545 | 7.25991 | 30842 ft | 496 kts | 90° |
| 2026-04-28 16:10 | 36.82726 | 7.38889 | 30848 ft | 497 kts | 90° |
| 2026-04-28 16:10 | 36.82894 | 7.51749 | 30853 ft | 497 kts | 90° |
| 2026-04-28 16:11 | 36.83097 | 7.69018 | 30855 ft | 498 kts | 91° |
| 2026-04-28 16:12 | 36.83232 | 7.81926 | 30852 ft | 499 kts | 91° |
| 2026-04-28 16:13 | 36.83297 | 7.94927 | 30856 ft | 499 kts | 91° |
| 2026-04-28 16:14 | 36.83362 | 8.12259 | 30852 ft | 502 kts | 91° |
| 2026-04-28 16:15 | 36.83408 | 8.29583 | 30862 ft | 501 kts | 92° |
| 2026-04-28 16:15 | 36.83420 | 8.38231 | 30863 ft | 502 kts | 91° |
| 2026-04-28 16:16 | 36.83431 | 8.51279 | 30865 ft | 503 kts | 91° |
| 2026-04-28 16:17 | 36.83426 | 8.64326 | 30879 ft | 503 kts | 91° |
| 2026-04-28 16:17 | 36.83464 | 8.73162 | 30889 ft | 505 kts | 91° |
| 2026-04-28 16:18 | 36.83523 | 8.81891 | 30897 ft | 506 kts | 91° |
| 2026-04-28 16:18 | 36.83576 | 8.90629 | 30903 ft | 506 kts | 91° |
| 2026-04-28 16:19 | 36.83618 | 8.99395 | 30908 ft | 506 kts | 91° |
| 2026-04-28 16:19 | 36.83655 | 9.08176 | 30908 ft | 507 kts | 91° |
| 2026-04-28 16:20 | 36.83682 | 9.16944 | 30911 ft | 507 kts | 91° |
| 2026-04-28 16:20 | 36.83705 | 9.25718 | 30917 ft | 508 kts | 91° |
| 2026-04-28 16:21 | 36.83722 | 9.34513 | 30923 ft | 509 kts | 91° |
| 2026-04-28 16:21 | 36.83740 | 9.43371 | 30944 ft | 512 kts | 91° |
| 2026-04-28 16:22 | 36.83805 | 9.47799 | 31080 ft | 512 kts | 90° |
| 2026-04-28 16:22 | 36.83900 | 9.52202 | 31365 ft | 509 kts | 90° |
| 2026-04-28 16:22 | 36.83998 | 9.56588 | 31589 ft | 508 kts | 90° |
| 2026-04-28 16:22 | 36.84091 | 9.60961 | 31730 ft | 508 kts | 90° |
| 2026-04-28 16:23 | 36.84264 | 9.69803 | 31922 ft | 511 kts | 91° |
| 2026-04-28 16:23 | 36.84345 | 9.74217 | 32052 ft | 512 kts | 91° |
| 2026-04-28 16:23 | 36.84422 | 9.78661 | 32177 ft | 512 kts | 91° |
| 2026-04-28 16:24 | 36.84500 | 9.83089 | 32301 ft | 513 kts | 91° |
| 2026-04-28 16:24 | 36.84575 | 9.87551 | 32429 ft | 513 kts | 91° |
| 2026-04-28 16:24 | 36.84649 | 9.91969 | 32546 ft | 514 kts | 91° |
| 2026-04-28 16:24 | 36.84721 | 9.96465 | 32599 ft | 516 kts | 91° |
| 2026-04-28 16:25 | 36.84861 | 10.05438 | 32670 ft | 521 kts | 91° |
| 2026-04-28 16:25 | 36.84996 | 10.14515 | 32828 ft | 523 kts | 92° |
| 2026-04-28 16:26 | 36.84710 | 10.23490 | 32927 ft | 520 kts | 99° |
| 2026-04-28 16:26 | 36.83528 | 10.32334 | 32936 ft | 517 kts | 106° |
| 2026-04-28 16:27 | 36.81939 | 10.41082 | 32939 ft | 517 kts | 107° |
| 2026-04-28 16:28 | 36.79575 | 10.54183 | 32943 ft | 517 kts | 107° |
| 2026-04-28 16:28 | 36.78009 | 10.62916 | 32952 ft | 518 kts | 107° |
| 2026-04-28 16:29 | 36.75640 | 10.76026 | 32963 ft | 518 kts | 107° |
| 2026-04-28 16:30 | 36.73253 | 10.89145 | 32969 ft | 520 kts | 107° |
| 2026-04-28 16:30 | 36.71663 | 10.97868 | 32966 ft | 520 kts | 107° |
| 2026-04-28 16:31 | 36.70048 | 11.06650 | 32971 ft | 522 kts | 107° |
| 2026-04-28 16:31 | 36.68409 | 11.15491 | 32974 ft | 523 kts | 107° |
| 2026-04-28 16:32 | 36.66779 | 11.24281 | 32973 ft | 524 kts | 107° |
| 2026-04-28 16:32 | 36.64321 | 11.37481 | 32970 ft | 524 kts | 107° |
| 2026-04-28 16:33 | 36.62953 | 11.44795 | 32973 ft | 524 kts | 107° |
| 2026-04-28 16:33 | 36.61009 | 11.55085 | 32973 ft | 526 kts | 107° |
| 2026-04-28 16:34 | 36.59331 | 11.63922 | 32978 ft | 527 kts | 107° |
| 2026-04-28 16:34 | 36.57639 | 11.72823 | 32974 ft | 527 kts | 108° |
| 2026-04-28 16:35 | 36.55948 | 11.81677 | 32979 ft | 528 kts | 108° |
| 2026-04-28 16:35 | 36.54259 | 11.90498 | 32984 ft | 529 kts | 108° |
| 2026-04-28 16:36 | 36.52554 | 11.99356 | 32980 ft | 529 kts | 108° |
| 2026-04-28 16:36 | 36.50831 | 12.08274 | 32984 ft | 530 kts | 108° |
| 2026-04-28 16:37 | 36.49436 | 12.17263 | 32982 ft | 535 kts | 102° |
| 2026-04-28 16:38 | 36.47964 | 12.30953 | 32988 ft | 536 kts | 101° |
| 2026-04-28 16:38 | 36.46984 | 12.40094 | 32988 ft | 536 kts | 101° |
| 2026-04-28 16:39 | 36.45977 | 12.49246 | 32988 ft | 537 kts | 101° |
| 2026-04-28 16:39 | 36.44967 | 12.58371 | 32995 ft | 537 kts | 101° |
| 2026-04-28 16:40 | 36.43940 | 12.67544 | 32987 ft | 538 kts | 102° |
| 2026-04-28 16:40 | 36.42900 | 12.76776 | 32996 ft | 539 kts | 102° |
| 2026-04-28 16:41 | 36.41862 | 12.85938 | 32996 ft | 539 kts | 102° |
| 2026-04-28 16:41 | 36.40813 | 12.95150 | 32999 ft | 540 kts | 101° |
| 2026-04-28 16:42 | 36.39759 | 13.04331 | 33002 ft | 541 kts | 101° |
| 2026-04-28 16:42 | 36.38692 | 13.13562 | 33002 ft | 542 kts | 101° |
| 2026-04-28 16:43 | 36.37615 | 13.22786 | 33007 ft | 542 kts | 101° |
| 2026-04-28 16:43 | 36.36519 | 13.32020 | 33006 ft | 545 kts | 101° |
| 2026-04-28 16:44 | 36.35426 | 13.41268 | 33007 ft | 543 kts | 101° |
| 2026-04-28 16:44 | 36.34325 | 13.50515 | 33009 ft | 545 kts | 101° |
| 2026-04-28 16:45 | 36.33211 | 13.59788 | 33009 ft | 546 kts | 101° |
| 2026-04-28 16:45 | 36.32089 | 13.69079 | 33008 ft | 547 kts | 101° |
| 2026-04-28 16:46 | 36.30963 | 13.78370 | 33011 ft | 546 kts | 101° |
| 2026-04-28 16:46 | 36.29825 | 13.87652 | 33015 ft | 547 kts | 101° |
| 2026-04-28 16:47 | 36.28685 | 13.96921 | 33014 ft | 546 kts | 101° |
| 2026-04-28 16:47 | 36.27526 | 14.06254 | 33016 ft | 548 kts | 101° |
| 2026-04-28 16:48 | 36.26369 | 14.15542 | 33016 ft | 547 kts | 101° |
| 2026-04-28 16:48 | 36.25202 | 14.24834 | 33018 ft | 547 kts | 101° |
| 2026-04-28 16:49 | 36.24034 | 14.34096 | 33018 ft | 547 kts | 101° |
| 2026-04-28 16:49 | 36.22849 | 14.43399 | 33016 ft | 547 kts | 100° |
| 2026-04-28 16:50 | 36.21663 | 14.52669 | 33019 ft | 548 kts | 101° |
| 2026-04-28 16:50 | 36.20468 | 14.61943 | 33023 ft | 548 kts | 100° |
| 2026-04-28 16:51 | 36.19268 | 14.71201 | 33021 ft | 547 kts | 101° |
| 2026-04-28 16:51 | 36.18056 | 14.80498 | 33017 ft | 547 kts | 101° |
| 2026-04-28 16:52 | 36.16843 | 14.89747 | 33018 ft | 547 kts | 101° |
| 2026-04-28 16:52 | 36.15615 | 14.99034 | 33017 ft | 548 kts | 101° |
| 2026-04-28 16:53 | 36.14378 | 15.08336 | 33024 ft | 547 kts | 101° |
| 2026-04-28 16:53 | 36.13148 | 15.17528 | 33027 ft | 547 kts | 100° |
| 2026-04-28 16:54 | 36.11906 | 15.26780 | 33022 ft | 548 kts | 100° |
| 2026-04-28 16:54 | 36.10648 | 15.36084 | 33028 ft | 548 kts | 100° |
| 2026-04-28 16:55 | 36.09388 | 15.45341 | 33026 ft | 549 kts | 100° |
| 2026-04-28 16:55 | 36.08118 | 15.54601 | 33030 ft | 548 kts | 100° |
| 2026-04-28 16:56 | 36.06845 | 15.63850 | 33033 ft | 549 kts | 99° |
| 2026-04-28 16:56 | 36.05568 | 15.73082 | 33031 ft | 549 kts | 100° |
| 2026-04-28 16:57 | 36.04279 | 15.82331 | 33037 ft | 548 kts | 100° |
| 2026-04-28 16:57 | 36.02979 | 15.91596 | 33036 ft | 547 kts | 100° |
| 2026-04-28 16:58 | 36.01678 | 16.00839 | 33035 ft | 548 kts | 100° |
| 2026-04-28 16:58 | 36.00370 | 16.10035 | 33039 ft | 547 kts | 100° |
| 2026-04-28 16:59 | 35.99056 | 16.19270 | 33038 ft | 548 kts | 99° |
| 2026-04-28 16:59 | 35.97733 | 16.28498 | 33042 ft | 549 kts | 100° |
| 2026-04-28 17:00 | 35.96404 | 16.37733 | 33041 ft | 549 kts | 100° |
| 2026-04-28 17:00 | 35.95056 | 16.47024 | 33044 ft | 548 kts | 100° |
| 2026-04-28 17:01 | 35.93716 | 16.56207 | 33046 ft | 550 kts | 99° |
| 2026-04-28 17:01 | 35.92358 | 16.65502 | 33043 ft | 549 kts | 101° |
| 2026-04-28 17:02 | 35.90997 | 16.74725 | 33050 ft | 550 kts | 100° |
| 2026-04-28 17:02 | 35.89625 | 16.84020 | 33048 ft | 550 kts | 100° |
| 2026-04-28 17:03 | 35.87813 | 16.97919 | 33049 ft | 550 kts | 94° |
| 2026-04-28 17:03 | 35.87151 | 17.07336 | 33057 ft | 551 kts | 93° |
| 2026-04-28 17:04 | 35.86205 | 17.21402 | 33057 ft | 552 kts | 93° |
| 2026-04-28 17:05 | 35.85216 | 17.35462 | 33058 ft | 552 kts | 93° |
| 2026-04-28 17:06 | 35.84200 | 17.49504 | 33055 ft | 552 kts | 93° |
| 2026-04-28 17:06 | 35.83160 | 17.63654 | 33058 ft | 553 kts | 93° |
| 2026-04-28 17:07 | 35.82461 | 17.73054 | 33056 ft | 553 kts | 93° |
| 2026-04-28 17:07 | 35.81755 | 17.82447 | 33058 ft | 554 kts | 94° |
| 2026-04-28 17:08 | 35.81037 | 17.91892 | 33058 ft | 554 kts | 94° |
| 2026-04-28 17:08 | 35.80317 | 18.01312 | 33058 ft | 553 kts | 93° |
| 2026-04-28 17:09 | 35.79591 | 18.10708 | 33056 ft | 553 kts | 94° |
| 2026-04-28 17:09 | 35.79155 | 18.20104 | 33056 ft | 550 kts | 86° |
| 2026-04-28 17:10 | 35.79625 | 18.29453 | 33059 ft | 545 kts | 79° |
| 2026-04-28 17:10 | 35.80459 | 18.38640 | 33058 ft | 545 kts | 79° |
| 2026-04-28 17:11 | 35.81284 | 18.47911 | 33058 ft | 544 kts | 79° |
| 2026-04-28 17:11 | 35.82061 | 18.57133 | 33057 ft | 543 kts | 79° |
| 2026-04-28 17:12 | 35.82824 | 18.66333 | 33056 ft | 541 kts | 79° |
| 2026-04-28 17:12 | 35.83587 | 18.75562 | 33058 ft | 542 kts | 79° |
| 2026-04-28 17:13 | 35.84333 | 18.84761 | 33057 ft | 541 kts | 80° |
| 2026-04-28 17:13 | 35.85074 | 18.93955 | 33058 ft | 540 kts | 79° |
| 2026-04-28 17:14 | 35.85811 | 19.03117 | 33061 ft | 540 kts | 79° |
| 2026-04-28 17:14 | 35.86531 | 19.12284 | 33063 ft | 538 kts | 79° |
| 2026-04-28 17:15 | 35.87239 | 19.21444 | 33060 ft | 536 kts | 79° |
| 2026-04-28 17:15 | 35.87945 | 19.30547 | 33064 ft | 535 kts | 79° |
| 2026-04-28 17:16 | 35.88644 | 19.39657 | 33062 ft | 535 kts | 79° |
| 2026-04-28 17:16 | 35.89332 | 19.48741 | 33063 ft | 533 kts | 79° |
| 2026-04-28 17:17 | 35.90011 | 19.57783 | 33063 ft | 531 kts | 79° |
| 2026-04-28 17:17 | 35.90687 | 19.66827 | 33063 ft | 530 kts | 80° |
| 2026-04-28 17:18 | 35.91349 | 19.75825 | 33065 ft | 528 kts | 80° |
| 2026-04-28 17:18 | 35.92004 | 19.84784 | 33058 ft | 528 kts | 80° |
| 2026-04-28 17:19 | 35.92656 | 19.93795 | 33065 ft | 526 kts | 80° |
| 2026-04-28 17:19 | 35.93292 | 20.02738 | 33060 ft | 525 kts | 80° |
| 2026-04-28 17:20 | 35.93815 | 20.10186 | 33060 ft | 524 kts | 80° |
| 2026-04-28 17:20 | 35.94537 | 20.20560 | 33064 ft | 524 kts | 80° |
| 2026-04-28 17:21 | 35.95140 | 20.29489 | 33057 ft | 523 kts | 80° |
| 2026-04-28 17:22 | 35.96019 | 20.42887 | 33058 ft | 523 kts | 80° |
| 2026-04-28 17:22 | 35.96594 | 20.51753 | 33061 ft | 521 kts | 80° |
| 2026-04-28 17:23 | 35.97448 | 20.65062 | 33063 ft | 519 kts | 81° |
| 2026-04-28 17:23 | 35.98017 | 20.73974 | 33062 ft | 519 kts | 81° |
| 2026-04-28 17:24 | 35.98569 | 20.82811 | 33058 ft | 517 kts | 81° |
| 2026-04-28 17:24 | 35.99113 | 20.91565 | 33054 ft | 517 kts | 81° |
| 2026-04-28 17:25 | 35.99921 | 21.04795 | 33058 ft | 516 kts | 81° |
| 2026-04-28 17:26 | 36.00447 | 21.13611 | 33060 ft | 514 kts | 81° |
| 2026-04-28 17:26 | 36.00959 | 21.22392 | 33057 ft | 514 kts | 81° |
| 2026-04-28 17:27 | 36.01467 | 21.31198 | 33059 ft | 514 kts | 81° |
| 2026-04-28 17:27 | 36.01968 | 21.39921 | 33059 ft | 513 kts | 81° |
| 2026-04-28 17:28 | 36.02467 | 21.48693 | 33057 ft | 512 kts | 81° |
| 2026-04-28 17:28 | 36.03197 | 21.61788 | 33054 ft | 509 kts | 81° |
| 2026-04-28 17:29 | 36.03667 | 21.70440 | 33061 ft | 508 kts | 82° |
| 2026-04-28 17:30 | 36.04371 | 21.83468 | 33059 ft | 507 kts | 82° |
| 2026-04-28 17:30 | 36.05058 | 21.96438 | 33056 ft | 506 kts | 82° |
| 2026-04-28 17:31 | 36.06087 | 22.09396 | 33449 ft | 498 kts | 70° |
| 2026-04-28 17:32 | 36.08337 | 22.17398 | 33744 ft | 492 kts | 64° |
| 2026-04-28 17:32 | 36.09535 | 22.21307 | 33866 ft | 492 kts | 63° |
| 2026-04-28 17:32 | 36.10737 | 22.25255 | 33987 ft | 492 kts | 64° |
| 2026-04-28 17:32 | 36.11938 | 22.29249 | 34133 ft | 492 kts | 64° |
| 2026-04-28 17:33 | 36.13110 | 22.33192 | 34282 ft | 491 kts | 64° |
| 2026-04-28 17:33 | 36.14269 | 22.37127 | 34421 ft | 490 kts | 64° |
| 2026-04-28 17:33 | 36.15431 | 22.41091 | 34566 ft | 489 kts | 65° |
| 2026-04-28 17:33 | 36.16204 | 22.43735 | 34644 ft | 489 kts | 65° |
| 2026-04-28 17:34 | 36.17739 | 22.49000 | 34819 ft | 489 kts | 65° |
| 2026-04-28 17:34 | 36.18892 | 22.52966 | 34951 ft | 488 kts | 65° |
| 2026-04-28 17:34 | 36.21172 | 22.60820 | 35051 ft | 489 kts | 65° |
| 2026-04-28 17:35 | 36.23473 | 22.68771 | 35050 ft | 489 kts | 65° |
| 2026-04-28 17:35 | 36.25757 | 22.76695 | 35060 ft | 488 kts | 66° |
| 2026-04-28 17:36 | 36.28020 | 22.84589 | 35058 ft | 488 kts | 66° |
| 2026-04-28 17:36 | 36.30288 | 22.92516 | 35069 ft | 486 kts | 66° |
| 2026-04-28 17:37 | 36.32542 | 23.00403 | 35074 ft | 486 kts | 66° |
| 2026-04-28 17:37 | 36.34781 | 23.08249 | 35066 ft | 485 kts | 66° |
| 2026-04-28 17:38 | 36.37025 | 23.16138 | 35075 ft | 484 kts | 66° |
| 2026-04-28 17:38 | 36.39245 | 23.23970 | 35071 ft | 483 kts | 66° |
| 2026-04-28 17:39 | 36.41476 | 23.31865 | 35070 ft | 483 kts | 66° |
| 2026-04-28 17:40 | 36.44841 | 23.43805 | 35064 ft | 481 kts | 66° |
| 2026-04-28 17:40 | 36.47035 | 23.51623 | 35061 ft | 482 kts | 66° |
| 2026-04-28 17:41 | 36.49233 | 23.59472 | 35066 ft | 481 kts | 66° |
| 2026-04-28 17:41 | 36.51418 | 23.67304 | 35065 ft | 481 kts | 67° |
| 2026-04-28 17:42 | 36.53615 | 23.75197 | 35060 ft | 480 kts | 67° |
| 2026-04-28 17:42 | 36.55772 | 23.82972 | 35063 ft | 479 kts | 67° |
| 2026-04-28 17:43 | 36.57944 | 23.90801 | 35061 ft | 477 kts | 67° |
| 2026-04-28 17:43 | 36.60101 | 23.98593 | 35064 ft | 477 kts | 67° |
| 2026-04-28 17:44 | 36.62247 | 24.06387 | 35055 ft | 476 kts | 67° |
| 2026-04-28 17:44 | 36.64369 | 24.14126 | 35064 ft | 475 kts | 67° |
| 2026-04-28 17:45 | 36.66494 | 24.21897 | 35051 ft | 475 kts | 67° |
| 2026-04-28 17:45 | 36.68619 | 24.29680 | 35063 ft | 475 kts | 67° |
| 2026-04-28 17:46 | 36.70735 | 24.37464 | 35047 ft | 475 kts | 67° |
| 2026-04-28 17:46 | 36.73460 | 24.44774 | 35050 ft | 465 kts | 51° |
| 2026-04-28 17:47 | 36.77349 | 24.51170 | 35056 ft | 462 kts | 48° |
| 2026-04-28 17:47 | 36.81255 | 24.57478 | 35049 ft | 460 kts | 48° |
| 2026-04-28 17:48 | 36.85161 | 24.63804 | 35058 ft | 460 kts | 48° |
| 2026-04-28 17:48 | 36.89072 | 24.70153 | 35055 ft | 460 kts | 49° |
| 2026-04-28 17:49 | 36.92954 | 24.76470 | 35042 ft | 459 kts | 49° |
| 2026-04-28 17:49 | 36.96817 | 24.82766 | 35041 ft | 459 kts | 49° |
| 2026-04-28 17:50 | 37.00704 | 24.89115 | 35046 ft | 459 kts | 49° |
| 2026-04-28 17:50 | 37.04568 | 24.95439 | 35041 ft | 458 kts | 49° |
| 2026-04-28 17:51 | 37.08420 | 25.01754 | 35045 ft | 457 kts | 49° |
| 2026-04-28 17:51 | 37.12278 | 25.08091 | 35036 ft | 457 kts | 49° |
| 2026-04-28 17:52 | 37.16114 | 25.14405 | 35031 ft | 456 kts | 49° |
| 2026-04-28 17:52 | 37.21885 | 25.23924 | 35040 ft | 456 kts | 49° |
| 2026-04-28 17:53 | 37.25697 | 25.30226 | 35021 ft | 455 kts | 49° |
| 2026-04-28 17:53 | 37.29524 | 25.36565 | 35035 ft | 455 kts | 49° |
| 2026-04-28 17:54 | 37.33335 | 25.42890 | 35027 ft | 454 kts | 49° |
| 2026-04-28 17:54 | 37.37138 | 25.49214 | 35025 ft | 454 kts | 49° |
| 2026-04-28 17:55 | 37.40929 | 25.55531 | 35024 ft | 455 kts | 48° |
| 2026-04-28 17:55 | 37.44734 | 25.61884 | 35020 ft | 454 kts | 48° |
| 2026-04-28 17:56 | 37.48502 | 25.68186 | 34704 ft | 448 kts | 49° |
| 2026-04-28 17:56 | 37.50379 | 25.71329 | 34076 ft | 448 kts | 49° |
| 2026-04-28 17:56 | 37.52247 | 25.74457 | 33222 ft | 451 kts | 49° |
| 2026-04-28 17:57 | 37.54125 | 25.77603 | 32367 ft | 452 kts | 49° |
| 2026-04-28 17:57 | 37.56021 | 25.80784 | 31515 ft | 454 kts | 49° |
| 2026-04-28 17:57 | 37.57897 | 25.83936 | 30659 ft | 455 kts | 50° |
| 2026-04-28 17:57 | 37.59800 | 25.87138 | 29721 ft | 457 kts | 50° |
| 2026-04-28 17:58 | 37.61689 | 25.90321 | 28821 ft | 459 kts | 50° |
| 2026-04-28 17:58 | 37.63605 | 25.93553 | 27971 ft | 461 kts | 50° |
| 2026-04-28 17:58 | 37.65497 | 25.96748 | 27178 ft | 462 kts | 50° |
| 2026-04-28 17:58 | 37.67417 | 25.99994 | 26362 ft | 464 kts | 50° |
| 2026-04-28 17:59 | 37.69339 | 26.03246 | 25514 ft | 466 kts | 50° |
| 2026-04-28 17:59 | 37.71278 | 26.06527 | 24846 ft | 466 kts | 50° |
| 2026-04-28 17:59 | 37.73229 | 26.09835 | 24273 ft | 469 kts | 50° |
| 2026-04-28 17:59 | 37.75156 | 26.13102 | 23689 ft | 471 kts | 50° |
| 2026-04-28 18:00 | 37.77125 | 26.16445 | 23090 ft | 471 kts | 51° |
| 2026-04-28 18:00 | 37.79060 | 26.19732 | 22466 ft | 468 kts | 51° |
| 2026-04-28 18:00 | 37.80991 | 26.23020 | 21910 ft | 462 kts | 51° |
| 2026-04-28 18:00 | 37.82870 | 26.26221 | 21284 ft | 456 kts | 51° |
| 2026-04-28 18:01 | 37.84754 | 26.29431 | 20672 ft | 450 kts | 51° |
| 2026-04-28 18:01 | 37.86588 | 26.32561 | 20092 ft | 444 kts | 51° |
| 2026-04-28 18:01 | 37.88423 | 26.35693 | 19552 ft | 437 kts | 51° |
| 2026-04-28 18:01 | 37.90208 | 26.38740 | 19056 ft | 437 kts | 51° |
| 2026-04-28 18:02 | 37.92025 | 26.41846 | 18532 ft | 438 kts | 51° |
| 2026-04-28 18:02 | 37.93834 | 26.44942 | 18034 ft | 438 kts | 51° |
| 2026-04-28 18:02 | 37.95648 | 26.48051 | 17316 ft | 437 kts | 51° |
| 2026-04-28 18:02 | 37.97488 | 26.51020 | 16758 ft | 430 kts | 47° |
| 2026-04-28 18:03 | 37.99556 | 26.53811 | 16191 ft | 426 kts | 42° |
| 2026-04-28 18:03 | 38.01711 | 26.56273 | 15691 ft | 419 kts | 39° |
| 2026-04-28 18:03 | 38.03916 | 26.58659 | 15060 ft | 415 kts | 38° |
| 2026-04-28 18:03 | 38.06109 | 26.61006 | 14531 ft | 410 kts | 38° |
| 2026-04-28 18:04 | 38.08261 | 26.63315 | 13926 ft | 406 kts | 39° |
| 2026-04-28 18:04 | 38.10392 | 26.65614 | 13445 ft | 399 kts | 39° |
| 2026-04-28 18:04 | 38.12483 | 26.67880 | 13097 ft | 389 kts | 40° |
| 2026-04-28 18:04 | 38.14248 | 26.70427 | 13002 ft | 377 kts | 57° |
| 2026-04-28 18:05 | 38.15263 | 26.73498 | 12886 ft | 378 kts | 73° |
| 2026-04-28 18:05 | 38.15684 | 26.75677 | 12755 ft | 378 kts | 75° |
| 2026-04-28 18:05 | 38.16457 | 26.79945 | 12512 ft | 365 kts | 75° |
| 2026-04-28 18:05 | 38.17030 | 26.83066 | 12232 ft | 358 kts | 75° |
| 2026-04-28 18:06 | 38.17600 | 26.86114 | 11886 ft | 352 kts | 74° |
| 2026-04-28 18:06 | 38.18160 | 26.89089 | 11532 ft | 348 kts | 74° |
| 2026-04-28 18:06 | 38.18722 | 26.92053 | 11094 ft | 344 kts | 74° |
| 2026-04-28 18:06 | 38.19274 | 26.94977 | 10510 ft | 333 kts | 74° |
| 2026-04-28 18:07 | 38.19799 | 26.97759 | 10130 ft | 316 kts | 74° |
| 2026-04-28 18:07 | 38.20296 | 27.00402 | 9783 ft | 299 kts | 74° |
| 2026-04-28 18:07 | 38.20768 | 27.02911 | 9453 ft | 286 kts | 74° |
| 2026-04-28 18:07 | 38.20919 | 27.05398 | 9089 ft | 284 kts | 98° |
| 2026-04-28 18:08 | 38.20060 | 27.07614 | 8728 ft | 285 kts | 130° |
| 2026-04-28 18:08 | 38.18478 | 27.09082 | 8300 ft | 283 kts | 157° |
| 2026-04-28 18:08 | 38.16581 | 27.09655 | 7908 ft | 275 kts | 169° |
| 2026-04-28 18:08 | 38.14709 | 27.10056 | 7475 ft | 270 kts | 169° |
| 2026-04-28 18:09 | 38.12882 | 27.10454 | 7042 ft | 264 kts | 169° |
| 2026-04-28 18:09 | 38.11105 | 27.10843 | 6800 ft | 251 kts | 169° |
| 2026-04-28 18:09 | 38.09420 | 27.11212 | 6443 ft | 245 kts | 169° |
| 2026-04-28 18:09 | 38.07761 | 27.11576 | 6107 ft | 239 kts | 168° |
| 2026-04-28 18:10 | 38.06165 | 27.12004 | 5856 ft | 225 kts | 157° |
| 2026-04-28 18:10 | 38.04983 | 27.13140 | 5503 ft | 210 kts | 121° |
| 2026-04-28 18:10 | 38.04478 | 27.14791 | 5173 ft | 195 kts | 91° |
| 2026-04-28 18:10 | 38.04572 | 27.16439 | 4846 ft | 185 kts | 76° |
| 2026-04-28 18:11 | 38.04826 | 27.18008 | 4525 ft | 180 kts | 73° |
| 2026-04-28 18:11 | 38.05104 | 27.19530 | 4267 ft | 174 kts | 69° |
| 2026-04-28 18:11 | 38.05674 | 27.20803 | 4030 ft | 163 kts | 44° |
| 2026-04-28 18:11 | 38.06587 | 27.21608 | 3685 ft | 159 kts | 21° |
| 2026-04-28 18:12 | 38.07659 | 27.21867 | 3572 ft | 159 kts | 360° |
| 2026-04-28 18:12 | 38.08760 | 27.21646 | 3556 ft | 160 kts | 349° |
| 2026-04-28 18:12 | 38.09849 | 27.21322 | 3529 ft | 160 kts | 348° |
| 2026-04-28 18:12 | 38.10932 | 27.20989 | 3489 ft | 160 kts | 348° |
| 2026-04-28 18:13 | 38.12017 | 27.20658 | 3432 ft | 160 kts | 348° |
| 2026-04-28 18:13 | 38.13102 | 27.20329 | 3332 ft | 160 kts | 348° |
| 2026-04-28 18:13 | 38.14189 | 27.20001 | 3190 ft | 159 kts | 349° |
| 2026-04-28 18:13 | 38.15261 | 27.19678 | 2893 ft | 157 kts | 349° |
| 2026-04-28 18:14 | 38.16289 | 27.19368 | 2655 ft | 149 kts | 349° |
| 2026-04-28 18:14 | 38.17297 | 27.19066 | 2457 ft | 145 kts | 349° |
| 2026-04-28 18:14 | 38.18275 | 27.18773 | 2263 ft | 143 kts | 348° |
| 2026-04-28 18:14 | 38.19242 | 27.18483 | 2078 ft | 143 kts | 349° |
| 2026-04-28 18:15 | 38.20209 | 27.18193 | 1894 ft | 142 kts | 348° |
| 2026-04-28 18:15 | 38.21173 | 27.17904 | 1710 ft | 142 kts | 348° |
| 2026-04-28 18:15 | 38.22131 | 27.17616 | 1529 ft | 141 kts | 348° |
| 2026-04-28 18:15 | 38.23088 | 27.17329 | 1343 ft | 141 kts | 348° |
| 2026-04-28 18:16 | 38.24046 | 27.17041 | 1157 ft | 140 kts | 346° |
| 2026-04-28 18:16 | 38.24994 | 27.16749 | 947 ft | 140 kts | 346° |
| 2026-04-28 18:16 | 38.25935 | 27.16466 | 756 ft | 140 kts | 348° |
| 2026-04-28 18:16 | 38.26881 | 27.16186 | 588 ft | 139 kts | 347° |
| 2026-04-28 18:17 | 38.27823 | 27.15905 | 420 ft | 137 kts | 347° |
| 2026-04-28 18:17 | 38.28684 | 27.15648 | 404 ft | 107 kts | 347° |
| 2026-04-28 18:17 | 38.29236 | 27.15482 | 407 ft | 50 kts | 346° |
| 2026-04-28 18:17 | 38.29362 | 27.15443 | 407 ft | 1 kts | 344° |
| 2026-04-28 18:18 | 38.29373 | 27.15437 | 406 ft | 1 kts | 331° |
| 2026-04-28 18:18 | 38.29378 | 27.15432 | 406 ft | 0 kts | 315° |
| 2026-04-28 18:18 | 38.29384 | 27.15419 | 406 ft | 1 kts | 290° |
| 2026-04-28 18:18 | 38.29385 | 27.15409 | 406 ft | 1 kts | 272° |
| 2026-04-28 18:19 | 38.29378 | 27.15369 | 406 ft | 4 kts | 258° |
| 2026-04-28 18:19 | 38.29368 | 27.15314 | 405 ft | 7 kts | 256° |
| 2026-04-28 18:19 | 38.29354 | 27.15234 | 403 ft | 8 kts | 257° |
| 2026-04-28 18:19 | 38.29342 | 27.15171 | 402 ft | 4 kts | 257° |
| 2026-04-28 18:20 | 38.29338 | 27.15153 | 402 ft | 0 kts | 237° |
| 2026-04-28 18:20 | 38.29332 | 27.15147 | 403 ft | 0 kts | 217° |
| 2026-04-28 18:20 | 38.29327 | 27.15143 | 403 ft | 0 kts | 206° |
| 2026-04-28 18:20 | 38.29321 | 27.15141 | 403 ft | 0 kts | 195° |
| 2026-04-28 18:21 | 38.29314 | 27.15140 | 404 ft | 3 kts | 180° |
| 2026-04-28 18:21 | 38.29297 | 27.15144 | 404 ft | 4 kts | 167° |
| 2026-04-28 18:21 | 38.29244 | 27.15161 | 407 ft | 3 kts | 166° |
| 2026-04-28 18:21 | 38.29229 | 27.15165 | 407 ft | 1 kts | 170° |
| 2026-04-28 18:22 | 38.29218 | 27.15159 | 408 ft | 2 kts | 226° |
| 2026-04-28 18:22 | 38.29209 | 27.15140 | 408 ft | 2 kts | 249° |
| 2026-04-28 18:22 | 38.29205 | 27.15122 | 409 ft | 2 kts | 257° |
| 2026-04-28 18:22 | 38.29203 | 27.15108 | 409 ft | 1 kts | 255° |
| 2026-04-28 18:23 | 38.29201 | 27.15099 | 409 ft | 2 kts | 255° |
| 2026-04-28 18:23 | 38.29200 | 27.15091 | 410 ft | 0 kts | 256° |
| 2026-04-28 18:23 | 38.29198 | 27.15086 | 410 ft | 0 kts | 256° |
| 2026-04-28 18:23 | 38.29198 | 27.15085 | 410 ft | 0 kts | 257° |